Time;durP1;ratioP1;P1;durP2;ratioP2;P2;SDS_P1;SDS_P2;PMS_P1;PMS_P2;Temp;Humidity;BMP_temperature;BMP_pressure;BME280_temperature;BME280_humidity;BME280_pressure;Samples;Min_cycle;Max_cycle;Signal;HPM_P1;HPM_P2
2024/03/28 00:00:59;;;;;;;;;3.83;3.00;;;;;11.74;58.95;97997.81;2013451;28;2754484;-73
2024/03/28 00:02:13;;;;;;;;;1.00;1.00;;;;;11.73;59.13;97998.81;2015828;28;2722138;-73
2024/03/28 00:03:26;;;;;;;;;3.50;3.00;;;;;11.76;59.06;98003.78;2035266;28;2748221;-73
2024/03/28 00:04:40;;;;;;;;;4.00;3.00;;;;;11.74;59.16;98003.94;2012764;28;2743041;-73
2024/03/28 00:05:57;;;;;;;;;3.00;3.00;;;;;11.72;58.91;97997.97;2026469;28;2735711;-73
2024/03/28 00:07:10;;;;;;;;;2.00;2.00;;;;;11.77;58.97;97992.31;2028492;28;2738903;-73
2024/03/28 00:08:25;;;;;;;;;1.83;1.83;;;;;11.79;59.17;98014.91;2027022;28;2733092;-73
2024/03/28 00:09:38;;;;;;;;;4.67;3.33;;;;;11.78;58.76;98023.75;2037565;28;2743033;-73
2024/03/28 00:10:53;;;;;;;;;4.00;4.00;;;;;11.80;58.36;98026.28;2020903;28;2742966;-74
2024/03/28 00:12:07;;;;;;;;;4.67;3.00;;;;;11.81;58.27;98026.16;2043638;28;2737758;-73
2024/03/28 00:13:22;;;;;;;;;3.17;2.33;;;;;11.78;58.12;98036.91;2021299;28;2746133;-73
2024/03/28 00:14:35;;;;;;;;;2.33;2.17;;;;;11.80;58.12;98044.72;2021041;28;2752396;-73
2024/03/28 00:16:05;;;;;;;;;3.83;3.00;;;;;11.81;58.28;98043.72;2012494;28;2750281;-74
2024/03/28 00:17:18;;;;;;;;;3.83;3.83;;;;;11.78;58.25;98038.72;2040549;28;2737897;-74
2024/03/28 00:18:31;;;;;;;;;2.50;2.50;;;;;11.82;58.45;98048.88;2012317;28;2748217;-73
2024/03/28 00:19:44;;;;;;;;;1.50;1.50;;;;;11.83;58.76;98031.28;2013179;28;2739853;-74
2024/03/28 00:20:59;;;;;;;;;1.17;1.00;;;;;11.85;58.61;98045.16;2026984;28;2735746;-74
2024/03/28 00:22:12;;;;;;;;;2.33;1.33;;;;;11.86;59.11;98048.63;2007382;28;2735679;-73
2024/03/28 00:23:25;;;;;;;;;1.17;1.17;;;;;11.82;59.44;98037.53;2013132;28;2741371;-74
2024/03/28 00:24:42;;;;;;;;;1.17;1.17;;;;;11.90;59.22;98044.78;2043952;28;2742990;-74
2024/03/28 00:26:00;;;;;;;;;1.33;1.33;;;;;11.89;59.58;98049.22;2021285;28;2737757;-74
2024/03/28 00:27:13;;;;;;;;;1.50;1.50;;;;;11.84;59.51;98032.97;2037443;28;2731504;-74
2024/03/28 00:28:26;;;;;;;;;1.33;1.33;;;;;11.87;60.03;98032.72;2017305;28;2727334;-74
2024/03/28 00:29:39;;;;;;;;;1.33;1.33;;;;;11.89;60.21;98040.47;2037239;28;2737782;-74
2024/03/28 00:30:53;;;;;;;;;2.67;2.00;;;;;11.86;60.34;98033.66;2021069;28;2754420;-74
2024/03/28 00:32:06;;;;;;;;;2.67;1.83;;;;;11.88;60.70;98029.09;2021224;28;2724239;-74
2024/03/28 00:33:19;;;;;;;;;1.00;0.50;;;;;11.89;60.57;98033.44;2042207;28;2735699;-74
2024/03/28 00:34:33;;;;;;;;;1.50;1.50;;;;;11.84;60.72;98013.69;2021974;28;2733626;-74
2024/03/28 00:35:48;;;;;;;;;1.33;0.50;;;;;11.89;60.75;98020.25;2019295;28;2733586;-74
2024/03/28 00:37:01;;;;;;;;;2.33;1.33;;;;;11.88;60.91;98023.84;2020626;28;2740895;-74
2024/03/28 00:38:16;;;;;;;;;2.00;1.50;;;;;11.86;61.15;98022.28;2039219;28;2750269;-74
2024/03/28 00:39:29;;;;;;;;;1.50;1.50;;;;;11.85;61.45;98024.13;2013781;28;2736759;-74
2024/03/28 00:40:53;;;;;;;;;1.50;1.50;;;;;11.86;61.63;98033.66;2012812;28;2741927;-73
2024/03/28 00:42:06;;;;;;;;;3.17;3.17;;;;;11.84;61.37;98030.34;2012742;28;2742974;-73
2024/03/28 00:43:20;;;;;;;;;1.83;1.83;;;;;11.86;61.67;98022.28;2012074;28;2741948;-73
2024/03/28 00:44:33;;;;;;;;;1.33;1.33;;;;;11.81;61.75;98005.09;2012859;28;2748193;-73
2024/03/28 00:45:47;;;;;;;;;1.17;1.17;;;;;11.82;61.67;98016.47;2011597;28;2747144;-73
2024/03/28 00:47:00;;;;;;;;;0.83;0.83;;;;;11.79;62.25;98020.19;2038148;28;2733100;-73
2024/03/28 00:48:16;;;;;;;;;1.00;1.00;;;;;11.78;61.99;98015.03;2033119;28;2739877;-73
2024/03/28 00:49:29;;;;;;;;;1.67;1.67;;;;;11.78;62.27;98018.50;2002912;28;2737788;-73
2024/03/28 00:50:51;;;;;;;;;1.83;1.33;;;;;11.78;62.31;98012.41;2011189;28;2728379;-73
2024/03/28 00:52:04;;;;;;;;;1.17;1.17;;;;;11.76;62.29;98009.06;2044705;28;2738807;-73
2024/03/28 00:53:17;;;;;;;;;1.17;1.17;;;;;11.76;62.40;98003.78;2021713;28;2733626;-73
2024/03/28 00:54:31;;;;;;;;;1.67;1.67;;;;;11.74;62.73;98000.47;2013699;28;2734695;-73
2024/03/28 00:55:44;;;;;;;;;1.00;1.00;;;;;11.74;62.86;98000.47;2041399;28;2731511;-73
2024/03/28 00:56:57;;;;;;;;;2.00;2.00;;;;;11.69;62.71;97992.94;2017082;28;2733590;-73
2024/03/28 00:58:12;;;;;;;;;3.50;2.50;;;;;11.69;62.98;97992.94;2035491;28;2752348;-73
2024/03/28 00:59:25;;;;;;;;;2.00;2.00;;;;;11.69;62.82;98000.84;2019042;28;2738234;-73
2024/03/28 01:00:40;;;;;;;;;3.00;1.33;;;;;11.67;63.25;97987.81;2015865;28;2737821;-73
2024/03/28 01:01:53;;;;;;;;;1.00;1.00;;;;;11.63;62.99;97978.50;2035026;28;2739853;-73
2024/03/28 01:03:06;;;;;;;;;1.50;1.50;;;;;11.62;63.01;97981.25;2035966;28;2744007;-73
2024/03/28 01:04:20;;;;;;;;;2.50;1.67;;;;;11.64;63.43;97981.97;2013203;28;2731554;-73
2024/03/28 01:05:35;;;;;;;;;2.00;2.00;;;;;11.59;62.94;97977.91;2037341;28;2733634;-73
2024/03/28 01:06:49;;;;;;;;;4.00;2.67;;;;;11.58;63.66;97970.16;2038356;28;2736217;-73
2024/03/28 01:08:02;;;;;;;;;2.00;1.00;;;;;11.58;63.46;97972.78;2010827;28;2742043;-73
2024/03/28 01:09:15;;;;;;;;;2.00;2.00;;;;;11.55;63.67;97965.16;2035982;28;2732557;-73
2024/03/28 01:10:28;;;;;;;;;1.33;1.00;;;;;11.54;63.41;97958.22;2037196;28;2731565;-73
2024/03/28 01:11:42;;;;;;;;;2.33;1.67;;;;;11.51;63.70;97947.97;2005919;28;2734693;-73
2024/03/28 01:12:55;;;;;;;;;1.00;1.00;;;;;11.52;63.85;97944.34;2006079;28;2737792;-73
2024/03/28 01:14:08;;;;;;;;;2.00;2.00;;;;;11.50;63.61;97935.75;2035337;28;2724236;-73
2024/03/28 01:15:21;;;;;;;;;2.00;2.00;;;;;11.50;63.74;97922.59;2015148;28;2748201;-73
2024/03/28 01:16:35;;;;;;;;;2.00;2.00;;;;;11.49;63.76;97924.38;2021535;28;2734644;-73
2024/03/28 01:17:48;;;;;;;;;3.00;1.33;;;;;11.44;63.82;97919.50;2043280;28;2726802;-73
2024/03/28 01:19:01;;;;;;;;;1.00;1.00;;;;;11.43;63.89;97901.25;2037716;28;2744091;-73
2024/03/28 01:20:14;;;;;;;;;2.00;2.00;;;;;11.43;64.15;97909.94;2037902;28;2730493;-73
2024/03/28 01:21:27;;;;;;;;;2.00;2.00;;;;;11.41;64.03;97906.59;2029451;28;2729436;-73
2024/03/28 01:22:42;;;;;;;;;2.50;2.00;;;;;11.38;64.18;97900.78;2034462;28;2732585;-73
2024/03/28 01:23:55;;;;;;;;;2.00;1.50;;;;;11.38;64.40;97909.50;2044989;28;2737212;-73
2024/03/28 01:25:09;;;;;;;;;2.00;2.00;;;;;11.38;64.39;97925.28;2011756;28;2737758;-73
2024/03/28 01:26:23;;;;;;;;;2.17;2.00;;;;;11.41;64.52;97940.78;2008053;28;2734637;-73
2024/03/28 01:27:40;;;;;;;;;2.17;1.67;;;;;11.39;63.97;97934.84;2028595;28;2737762;-73
2024/03/28 01:28:53;;;;;;;;;1.00;1.00;;;;;11.38;64.44;97938.44;2010018;28;2742974;-73
2024/03/28 01:30:08;;;;;;;;;2.00;1.33;;;;;11.39;64.42;97941.88;2043937;28;2730525;-73
2024/03/28 01:31:21;;;;;;;;;1.50;1.50;;;;;11.38;64.67;97935.81;2041759;28;2737786;-73
2024/03/28 01:32:35;;;;;;;;;2.00;2.00;;;;;11.39;64.48;97932.19;2019336;28;2740882;-73
2024/03/28 01:33:48;;;;;;;;;1.17;1.17;;;;;11.34;64.55;97927.31;2021654;28;2733957;-73
2024/03/28 01:35:01;;;;;;;;;2.50;2.50;;;;;11.33;64.69;97914.31;2030939;28;2734664;-73
2024/03/28 01:36:15;;;;;;;;;2.83;2.50;;;;;11.34;64.84;97915.97;2007978;28;2727349;-73
2024/03/28 01:37:28;;;;;;;;;1.50;1.00;;;;;11.35;64.67;97915.00;2012646;28;2739840;-73
2024/03/28 01:38:41;;;;;;;;;2.17;1.83;;;;;11.33;64.58;97930.09;2023060;28;2736775;-73
2024/03/28 01:39:54;;;;;;;;;2.67;1.67;;;;;11.35;64.88;97943.94;2045138;28;2733591;-73
2024/03/28 01:41:08;;;;;;;;;2.67;2.67;;;;;11.32;64.81;97944.19;2020524;28;2750267;-73
2024/03/28 01:42:21;;;;;;;;;1.83;1.83;;;;;11.33;64.42;97944.03;2022921;28;2727384;-73
2024/03/28 01:43:38;;;;;;;;;1.17;1.17;;;;;11.32;64.62;97950.28;2037439;28;2731520;-73
2024/03/28 01:44:53;;;;;;;;;2.17;2.00;;;;;11.35;64.88;97959.72;2030930;28;2731524;-73
2024/03/28 01:46:07;;;;;;;;;1.50;1.50;;;;;11.33;64.78;97956.38;2013858;28;2745073;-73
2024/03/28 01:47:22;;;;;;;;;2.33;2.17;;;;;11.31;64.98;97955.69;2011248;28;2746125;-73
2024/03/28 01:48:36;;;;;;;;;1.83;1.83;;;;;11.32;64.86;97954.69;1999595;28;2737773;-73
2024/03/28 01:49:50;;;;;;;;;1.17;1.17;;;;;11.30;64.85;97961.88;2016013;28;2732568;-73
2024/03/28 01:51:03;;;;;;;;;2.67;1.17;;;;;11.30;65.03;97965.34;2045809;28;2726355;-73
2024/03/28 01:52:17;;;;;;;;;2.17;2.17;;;;;11.31;65.13;97956.47;2045767;28;2741928;-73
2024/03/28 01:53:31;;;;;;;;;3.00;3.00;;;;;11.33;64.96;97967.72;2045328;28;2753437;-72
2024/03/28 01:54:45;;;;;;;;;2.33;2.33;;;;;11.31;64.95;97963.56;2021506;28;2741946;-73
2024/03/28 01:55:58;;;;;;;;;2.00;2.00;;;;;11.31;64.93;97964.38;2013728;28;2738804;-73
2024/03/28 01:57:12;;;;;;;;;3.00;1.17;;;;;11.30;65.49;97967.97;2039428;28;2728398;-73
2024/03/28 01:58:25;;;;;;;;;3.00;3.00;;;;;11.28;65.31;97958.53;2039318;28;2734629;-73
2024/03/28 01:59:39;;;;;;;;;2.33;2.33;;;;;11.31;65.07;97960.94;2013871;28;2741955;-72
2024/03/28 02:00:53;;;;;;;;;2.33;2.17;;;;;11.30;65.18;97973.25;2005550;28;2739881;-73
2024/03/28 02:02:09;;;;;;;;;3.00;2.00;;;;;11.28;65.25;97959.38;2008088;28;2737760;-73
2024/03/28 02:03:22;;;;;;;;;2.00;2.00;;;;;11.28;65.30;97959.38;2022561;28;2743370;-73
2024/03/28 02:04:36;;;;;;;;;1.33;1.33;;;;;11.29;65.13;97962.81;2022915;28;2731527;-73
2024/03/28 02:05:50;;;;;;;;;2.83;1.33;;;;;11.27;65.29;97952.44;2021752;28;2731532;-72
2024/03/28 02:07:04;;;;;;;;;2.33;2.00;;;;;11.27;65.31;97960.34;2014321;28;2733592;-73
2024/03/28 02:08:17;;;;;;;;;1.67;1.67;;;;;11.27;65.38;97954.22;2015759;28;2734715;-73
2024/03/28 02:09:28;;;;;;;;;4.00;4.00;;;;;11.29;65.46;97962.81;2019625;28;2754447;-73
2024/03/28 02:10:41;;;;;;;;;1.83;1.83;;;;;11.30;65.04;97964.50;2037160;28;2729452;-72
2024/03/28 02:12:01;;;;;;;;;2.00;2.00;;;;;11.25;65.41;97955.22;2038265;28;2737781;-73
2024/03/28 02:13:14;;;;;;;;;1.83;1.83;;;;;11.25;65.40;97951.75;2044710;28;2740898;-73
2024/03/28 02:14:27;;;;;;;;;3.17;3.17;;;;;11.25;65.46;97955.22;2044761;28;2748192;-73
2024/03/28 02:15:40;;;;;;;;;2.00;2.00;;;;;11.24;65.74;97950.91;2012717;28;2752365;-72
2024/03/28 02:17:03;;;;;;;;;1.83;1.83;;;;;11.29;65.47;97960.19;2012732;28;2730470;-73
2024/03/28 02:18:22;;;;;;;;;1.83;1.83;;;;;11.28;65.34;97962.00;2013598;28;2736760;-72
2024/03/28 02:19:35;;;;;;;;;2.50;2.33;;;;;11.29;65.40;97961.03;2038279;28;2752332;-72
2024/03/28 02:20:49;;;;;;;;;1.50;1.33;;;;;11.30;65.72;97961.88;2012856;28;2735689;-72
2024/03/28 02:22:02;;;;;;;;;2.17;2.17;;;;;11.28;65.59;97961.19;2037450;28;2750282;-73
2024/03/28 02:23:15;;;;;;;;;1.00;1.00;;;;;11.29;65.58;97961.03;2020985;28;2746477;-72
2024/03/28 02:24:29;;;;;;;;;2.67;2.00;;;;;11.32;65.76;97965.22;2037025;28;2731536;-72
2024/03/28 02:25:42;;;;;;;;;1.33;1.33;;;;;11.32;65.72;97970.47;2034122;28;2731539;-72
2024/03/28 02:26:56;;;;;;;;;2.00;2.00;;;;;11.30;65.67;97961.88;2030954;28;2734655;-72
2024/03/28 02:28:09;;;;;;;;;2.83;2.00;;;;;11.31;65.55;97967.00;2042193;28;2736720;-73
2024/03/28 02:29:23;;;;;;;;;3.00;3.00;;;;;11.33;65.77;97967.72;2044190;28;2754523;-73
2024/03/28 02:30:36;;;;;;;;;1.00;1.00;;;;;11.31;65.84;97964.38;2014487;28;2739853;-72
2024/03/28 02:31:50;;;;;;;;;1.00;1.00;;;;;11.31;65.66;97959.13;2040292;28;2718036;-72
2024/03/28 02:33:03;;;;;;;;;1.00;1.00;;;;;11.29;65.69;97963.66;2039938;28;2738840;-72
2024/03/28 02:34:16;;;;;;;;;2.00;2.00;;;;;11.35;65.74;97960.56;2014438;28;2739841;-72
2024/03/28 02:35:29;;;;;;;;;1.33;1.33;;;;;11.29;65.46;97947.91;2021752;28;2734200;-73
2024/03/28 02:36:42;;;;;;;;;3.50;2.00;;;;;11.38;65.55;97958.63;2011273;28;2748221;-73
2024/03/28 02:37:59;;;;;;;;;1.50;1.50;;;;;11.34;65.83;97952.78;2014227;28;2736752;-73
2024/03/28 02:39:13;;;;;;;;;1.83;1.83;;;;;11.36;66.04;97958.75;2038296;28;2733129;-72
2024/03/28 02:40:27;;;;;;;;;1.17;1.17;;;;;11.35;65.81;97957.09;2014285;28;2729429;-72
2024/03/28 02:41:40;;;;;;;;;2.17;2.00;;;;;11.37;65.94;97957.78;2009403;28;2732577;-72
2024/03/28 02:42:53;;;;;;;;;1.00;1.00;;;;;11.32;65.72;97957.31;2037780;28;2732948;-72
2024/03/28 02:44:06;;;;;;;;;3.00;1.00;;;;;11.33;65.74;97964.28;2030593;28;2746087;-72
2024/03/28 02:45:20;;;;;;;;;1.00;1.00;;;;;11.32;65.97;97957.31;2007256;28;2735187;-72
2024/03/28 02:46:33;;;;;;;;;1.00;1.00;;;;;11.38;66.00;97971.78;2008521;28;2730529;-72
2024/03/28 02:47:46;;;;;;;;;2.00;2.00;;;;;11.33;65.82;97969.53;2036128;28;2729448;-72
2024/03/28 02:48:59;;;;;;;;;1.17;1.00;;;;;11.36;66.07;97971.88;2014326;28;2736740;-73
2024/03/28 02:50:13;;;;;;;;;1.17;1.17;;;;;11.35;65.75;97972.88;2037728;28;2737802;-73
2024/03/28 02:51:26;;;;;;;;;2.33;2.00;;;;;11.36;65.90;97982.41;2009232;28;2728398;-72
2024/03/28 02:52:39;;;;;;;;;0.00;0.00;;;;;11.33;65.92;97972.16;2014095;28;2719015;-71
2024/03/28 02:53:52;;;;;;;;;1.00;1.00;;;;;11.37;66.04;97976.19;2037676;28;2733981;-72
2024/03/28 02:55:06;;;;;;;;;1.00;1.00;;;;;11.41;65.83;97980.25;2017984;28;2734649;-72
2024/03/28 02:56:19;;;;;;;;;2.33;1.00;;;;;11.37;66.00;97981.47;2045419;28;2734696;-72
2024/03/28 02:57:33;;;;;;;;;1.00;1.00;;;;;11.38;65.93;97988.41;2039638;28;2735725;-72
2024/03/28 02:58:46;;;;;;;;;1.17;1.17;;;;;11.39;65.79;97990.06;2042090;28;2738783;-72
2024/03/28 02:59:59;;;;;;;;;1.83;1.83;;;;;11.42;66.07;97997.72;2030043;28;2744034;-71
2024/03/28 03:01:12;;;;;;;;;1.83;1.00;;;;;11.40;65.83;97994.38;2012793;28;2737776;-72
2024/03/28 03:02:25;;;;;;;;;0.83;0.83;;;;;11.42;66.16;98002.13;2013615;28;2735694;-72
2024/03/28 03:03:39;;;;;;;;;0.00;0.00;;;;;11.42;65.95;98013.50;2042700;28;2725262;-72
2024/03/28 03:04:52;;;;;;;;;1.17;0.67;;;;;11.42;66.42;98002.97;2044143;28;2733631;-72
2024/03/28 03:06:06;;;;;;;;;1.00;1.00;;;;;11.44;66.47;98006.31;2012157;28;2731508;-72
2024/03/28 03:07:19;;;;;;;;;0.33;0.33;;;;;11.39;66.12;97992.69;2013926;28;2739848;-72
2024/03/28 03:08:32;;;;;;;;;1.00;1.00;;;;;11.46;66.01;98008.81;2016939;28;2737794;-72
2024/03/28 03:09:45;;;;;;;;;0.50;0.50;;;;;11.45;65.63;98012.41;2021989;28;2727372;-72
2024/03/28 03:10:58;;;;;;;;;0.67;0.67;;;;;11.42;65.92;98008.22;2042592;28;2733614;-72
2024/03/28 03:12:11;;;;;;;;;1.00;1.00;;;;;11.41;65.48;97993.41;2038761;28;2730514;-72
2024/03/28 03:13:25;;;;;;;;;0.00;0.00;;;;;11.40;65.89;97994.38;2040592;28;2732546;-73
2024/03/28 03:14:38;;;;;;;;;1.00;0.00;;;;;11.37;65.67;97994.63;2045920;28;2733631;-72
2024/03/28 03:15:53;;;;;;;;;0.00;0.00;;;;;11.33;65.79;97982.69;2045731;28;2733670;-72
2024/03/28 03:17:09;;;;;;;;;0.00;0.00;;;;;11.30;65.63;97977.66;2045787;28;2722134;-74
2024/03/28 03:18:26;;;;;;;;;0.00;0.00;;;;;11.30;65.45;97982.91;2039708;28;2725274;-72
2024/03/28 03:19:40;;;;;;;;;0.00;0.00;;;;;11.28;65.37;97985.69;2038359;28;2725259;-72
2024/03/28 03:21:00;;;;;;;;;0.00;0.00;;;;;11.31;65.71;97993.31;2045198;28;2725285;-72
2024/03/28 03:22:15;;;;;;;;;0.00;0.00;;;;;11.32;65.60;98007.28;2037106;28;2724313;-72
2024/03/28 03:23:35;;;;;;;;;1.83;0.17;;;;;11.29;65.54;98002.28;2001725;28;2727338;-72
2024/03/28 03:24:49;;;;;;;;;0.00;0.00;;;;;11.29;65.60;97999.63;2034542;28;2729436;-72
2024/03/28 03:26:11;;;;;;;;;0.00;0.00;;;;;11.27;65.23;98007.66;2038591;28;2709112;-72
2024/03/28 03:27:32;;;;;;;;;0.00;0.00;;;;;11.23;65.07;98004.47;2030480;28;2721647;-73
2024/03/28 03:35:00;;;;;;;;;0.00;0.00;;;;;11.12;65.60;98022.84;2040796;28;2704458;-73
2024/03/28 03:36:14;;;;;;;;;0.00;0.00;;;;;11.11;65.43;98026.47;2044934;28;2717029;-73
2024/03/28 03:37:27;;;;;;;;;0.00;0.00;;;;;11.11;65.38;98029.09;2035966;28;2725254;-72
2024/03/28 03:38:40;;;;;;;;;0.00;0.00;;;;;11.11;65.65;98031.72;2033052;28;2730481;-72
2024/03/28 03:39:59;;;;;;;;;0.00;0.00;;;;;11.10;65.80;98030.88;2046414;28;2704482;-72
2024/03/28 03:41:12;;;;;;;;;0.67;0.00;;;;;11.11;65.91;98039.59;2029245;28;2725290;-72
2024/03/28 03:42:25;;;;;;;;;0.00;0.00;;;;;11.07;65.96;98025.84;2030645;28;2725258;-72
2024/03/28 03:43:39;;;;;;;;;0.00;0.00;;;;;11.07;65.74;98025.00;2037198;28;2729468;-73
2024/03/28 03:44:52;;;;;;;;;0.00;0.00;;;;;11.05;65.77;98022.50;2032803;28;2725277;-72
2024/03/28 03:46:05;;;;;;;;;0.00;0.00;;;;;11.02;65.81;98026.22;2030373;28;2725301;-72
2024/03/28 03:47:18;;;;;;;;;0.00;0.00;;;;;11.08;65.77;98039.84;2044311;28;2712799;-72
2024/03/28 03:48:31;;;;;;;;;0.00;0.00;;;;;11.08;65.18;98037.22;2044859;28;2725286;-72
2024/03/28 03:49:45;;;;;;;;;0.00;0.00;;;;;11.04;65.57;98036.59;2036975;28;2725266;-73
2024/03/28 03:50:58;;;;;;;;;0.00;0.00;;;;;11.04;65.72;98041.84;2038665;28;2733607;-72
2024/03/28 03:52:11;;;;;;;;;0.50;0.00;;;;;11.06;65.74;98036.50;2036274;28;2725270;-73
2024/03/28 03:53:24;;;;;;;;;2.50;0.67;;;;;11.00;65.63;98028.13;2029438;28;2739877;-73
2024/03/28 03:54:39;;;;;;;;;0.00;0.00;;;;;11.04;65.52;98036.59;2037438;28;2725251;-73
2024/03/28 03:55:53;;;;;;;;;0.00;0.00;;;;;11.03;65.35;98035.78;2038914;28;2716945;-73
2024/03/28 03:57:07;;;;;;;;;0.00;0.00;;;;;10.98;65.44;98034.47;2038076;28;2724574;-73
2024/03/28 03:58:21;;;;;;;;;0.00;0.00;;;;;11.00;65.64;98054.41;2042006;28;2724701;-73
2024/03/28 03:59:35;;;;;;;;;0.00;0.00;;;;;10.99;65.54;98055.38;2040936;28;2721619;-73
2024/03/28 04:00:48;;;;;;;;;0.00;0.00;;;;;10.98;65.57;98066.84;2038292;28;2725282;-72
2024/03/28 04:02:01;;;;;;;;;0.00;0.00;;;;;10.93;65.15;98065.53;2045756;28;2725260;-72
2024/03/28 04:03:14;;;;;;;;;0.33;0.00;;;;;10.91;65.59;98068.28;2046005;28;2724264;-72
2024/03/28 04:04:28;;;;;;;;;0.00;0.00;;;;;10.93;65.11;98086.56;2037381;28;2725265;-73
2024/03/28 04:05:41;;;;;;;;;0.00;0.00;;;;;10.88;65.37;98084.28;2039450;28;2716957;-72
2024/03/28 04:06:56;;;;;;;;;0.00;0.00;;;;;10.89;65.02;98091.22;2046356;28;2725297;-72
2024/03/28 04:08:09;;;;;;;;;0.00;0.00;;;;;10.83;64.84;98086.41;2045722;28;2725265;-73
2024/03/28 04:09:23;;;;;;;;;0.00;0.00;;;;;10.83;64.94;98108.28;2036647;28;2725273;-72
2024/03/28 04:10:36;;;;;;;;;0.00;0.00;;;;;10.76;65.17;98100.03;2038890;28;2726338;-73
2024/03/28 04:11:50;;;;;;;;;0.00;0.00;;;;;10.76;65.40;98118.44;2045090;28;2725647;-73
2024/03/28 04:13:03;;;;;;;;;0.00;0.00;;;;;10.71;65.30;98107.44;2036112;28;2737773;-73
2024/03/28 04:14:18;;;;;;;;;0.83;0.00;;;;;10.69;65.33;98117.22;2035955;28;2722140;-73
2024/03/28 04:15:31;;;;;;;;;0.00;0.00;;;;;10.69;65.16;98130.38;2038641;28;2714857;-73
2024/03/28 04:16:44;;;;;;;;;0.50;0.50;;;;;10.66;65.26;98127.97;2044033;28;2738120;-72
2024/03/28 04:17:57;;;;;;;;;0.00;0.00;;;;;10.62;65.11;98131.78;2043680;28;2721088;-72
2024/03/28 04:19:11;;;;;;;;;0.00;0.00;;;;;10.60;65.14;98133.66;2040405;28;2721163;-72
2024/03/28 04:20:24;;;;;;;;;0.00;0.00;;;;;10.56;65.47;98144.41;2037631;28;2733623;-72
2024/03/28 04:21:38;;;;;;;;;0.00;0.00;;;;;10.56;65.47;98160.19;2045838;28;2723206;-72
2024/03/28 04:22:51;;;;;;;;;1.00;0.00;;;;;10.52;65.89;98163.97;2044936;28;2725261;-72
2024/03/28 04:24:05;;;;;;;;;1.33;0.00;;;;;10.51;65.04;98167.56;2039563;28;2728406;-73
2024/03/28 04:25:18;;;;;;;;;0.50;0.50;;;;;10.47;65.42;98172.16;2028690;28;2731531;-72
2024/03/28 04:26:33;;;;;;;;;0.00;0.00;;;;;10.40;65.37;98164.84;2028336;28;2723255;-72
2024/03/28 04:27:46;;;;;;;;;0.00;0.00;;;;;10.42;65.32;98176.09;2036191;28;2725310;-72
2024/03/28 04:29:00;;;;;;;;;0.00;0.00;;;;;10.33;64.62;98161.84;2044380;28;2733572;-72
2024/03/28 04:30:14;;;;;;;;;0.00;0.00;;;;;10.36;65.11;98180.00;2039559;28;2733660;-72
2024/03/28 04:31:27;;;;;;;;;0.00;0.00;;;;;10.35;65.22;98179.16;2036702;28;2725257;-72
2024/03/28 04:32:44;;;;;;;;;0.83;0.00;;;;;10.32;65.07;98184.63;2036397;28;2725305;-72
2024/03/28 04:33:57;;;;;;;;;0.00;0.00;;;;;10.28;65.26;98182.34;2035569;28;2731507;-72
2024/03/28 04:35:10;;;;;;;;;0.33;0.00;;;;;10.25;65.37;98188.66;2036989;28;2727397;-73
2024/03/28 04:36:23;;;;;;;;;0.00;0.00;;;;;10.24;65.31;98185.22;2042330;28;2727388;-72
2024/03/28 04:37:36;;;;;;;;;0.00;0.00;;;;;10.24;64.89;98185.22;2039214;28;2729432;-72
2024/03/28 04:38:50;;;;;;;;;0.33;0.00;;;;;10.19;65.23;98183.84;2043887;28;2725282;-72
2024/03/28 04:40:03;;;;;;;;;0.00;0.00;;;;;10.18;65.15;98187.41;2044001;28;2724245;-72
2024/03/28 04:41:16;;;;;;;;;0.00;0.00;;;;;10.17;65.49;98197.09;2045148;28;2729428;-73
2024/03/28 04:42:29;;;;;;;;;0.83;0.83;;;;;10.09;65.46;98195.03;2036665;28;2730486;-72
2024/03/28 04:43:43;;;;;;;;;0.00;0.00;;;;;10.11;65.39;98202.78;2027232;28;2719016;-72
2024/03/28 04:44:56;;;;;;;;;0.00;0.00;;;;;10.11;65.21;98206.25;2029234;28;2733602;-72
2024/03/28 04:46:10;;;;;;;;;0.00;0.00;;;;;10.07;65.07;98212.69;2037458;28;2723174;-71
2024/03/28 04:47:23;;;;;;;;;0.00;0.00;;;;;10.02;64.89;98212.16;2041254;28;2722157;-73
2024/03/28 04:48:36;;;;;;;;;0.50;0.00;;;;;10.05;64.79;98218.97;2037966;28;2723179;-73
2024/03/28 04:49:49;;;;;;;;;0.33;0.00;;;;;9.97;64.87;98217.75;2031094;28;2725782;-73
2024/03/28 04:51:03;;;;;;;;;0.00;0.00;;;;;9.98;65.13;98229.91;2020130;28;2732620;-73
2024/03/28 04:52:16;;;;;;;;;0.00;0.00;;;;;9.98;65.08;98243.03;2029941;28;2725345;-73
2024/03/28 04:53:29;;;;;;;;;0.00;0.00;;;;;9.99;65.00;98246.50;2041200;28;2721083;-73
2024/03/28 04:54:43;;;;;;;;;0.00;0.00;;;;;9.99;64.81;98252.59;2040848;28;2714869;-73
2024/03/28 04:55:56;;;;;;;;;0.00;0.00;;;;;9.97;65.06;98254.47;2029845;28;2730471;-73
2024/03/28 04:57:09;;;;;;;;;0.00;0.00;;;;;9.93;64.46;98241.66;2030668;28;2706552;-73
2024/03/28 04:58:23;;;;;;;;;0.00;0.00;;;;;9.94;64.47;98248.59;2038684;28;2711785;-71
2024/03/28 04:59:36;;;;;;;;;0.00;0.00;;;;;9.90;64.53;98246.19;2045075;28;2710732;-74
2024/03/28 05:00:49;;;;;;;;;0.00;0.00;;;;;9.85;64.71;98256.16;2034774;28;2721088;-74
2024/03/28 05:02:03;;;;;;;;;0.00;0.00;;;;;9.85;64.79;98247.47;2036899;28;2725800;-75
2024/03/28 05:03:16;;;;;;;;;0.00;0.00;;;;;9.79;64.74;98246.09;2036812;28;2721123;-75
2024/03/28 05:04:29;;;;;;;;;0.00;0.00;;;;;9.87;64.49;98272.66;2036718;28;2733602;-76
2024/03/28 05:05:43;;;;;;;;;0.00;0.00;;;;;9.81;64.82;98262.56;2036482;28;2722130;-73
2024/03/28 05:06:56;;;;;;;;;0.00;0.00;;;;;9.83;64.08;98262.47;2024347;28;2722141;-74
2024/03/28 05:08:09;;;;;;;;;0.67;0.00;;;;;9.78;64.16;98274.13;2029473;28;2727401;-75
2024/03/28 05:09:23;;;;;;;;;0.00;0.00;;;;;9.70;64.03;98263.34;2036537;28;2724240;-74
2024/03/28 05:10:39;;;;;;;;;0.00;0.00;;;;;9.76;64.04;98273.38;2029922;28;2722141;-74
2024/03/28 05:11:52;;;;;;;;;0.00;0.00;;;;;9.74;64.43;98275.28;2039131;28;2712795;-75
2024/03/28 05:13:05;;;;;;;;;0.83;0.00;;;;;9.68;64.31;98270.44;2045598;28;2719028;-75
2024/03/28 05:14:18;;;;;;;;;0.00;0.00;;;;;9.60;64.37;98259.66;2045334;28;2725624;-76
2024/03/28 05:15:31;;;;;;;;;0.50;0.50;;;;;9.66;63.88;98283.69;2035635;28;2731531;-78
2024/03/28 05:16:45;;;;;;;;;0.67;0.00;;;;;9.65;64.31;98281.16;2029146;28;2733607;-79
2024/03/28 05:17:58;;;;;;;;;0.17;0.00;;;;;9.64;64.52;98290.81;2035684;28;2725258;-79
2024/03/28 05:19:11;;;;;;;;;0.00;0.00;;;;;9.64;63.84;98301.31;2030257;28;2725262;-79
2024/03/28 05:20:24;;;;;;;;;0.83;0.00;;;;;9.61;64.36;98293.63;2036475;28;2735701;-78
2024/03/28 05:21:37;;;;;;;;;0.00;0.00;;;;;9.61;63.93;98300.66;2037496;28;2725274;-78
2024/03/28 05:22:51;;;;;;;;;1.00;1.00;;;;;9.55;64.36;98302.78;2028199;28;2733654;-78
2024/03/28 05:24:05;;;;;;;;;0.50;0.50;;;;;9.57;64.62;98307.91;2006763;28;2730496;-77
2024/03/28 05:25:19;;;;;;;;;0.50;0.50;;;;;9.52;63.96;98303.00;2036315;28;2736727;-75
2024/03/28 05:26:33;;;;;;;;;0.00;0.00;;;;;9.53;64.22;98307.28;2037187;28;2729443;-74
2024/03/28 05:27:47;;;;;;;;;1.67;0.33;;;;;9.53;64.35;98314.31;2026908;28;2736716;-74
2024/03/28 05:29:00;;;;;;;;;0.67;0.00;;;;;9.55;64.57;98322.91;2021927;28;2731519;-74
2024/03/28 05:30:13;;;;;;;;;1.33;0.00;;;;;9.50;64.83;98314.53;2037193;28;2725286;-73
2024/03/28 05:31:28;;;;;;;;;0.00;0.00;;;;;9.52;64.30;98333.59;2045235;28;2733595;-74
2024/03/28 05:32:42;;;;;;;;;1.17;0.00;;;;;9.53;64.56;98340.56;2045006;28;2730518;-73
2024/03/28 05:33:55;;;;;;;;;2.00;0.17;;;;;9.50;64.86;98331.09;2044601;28;2725294;-73
2024/03/28 05:35:08;;;;;;;;;0.17;0.00;;;;;9.53;65.15;98337.94;2044448;28;2725608;-74
2024/03/28 05:36:24;;;;;;;;;0.00;0.00;;;;;9.51;64.42;98338.00;2040617;28;2725278;-73
2024/03/28 05:37:37;;;;;;;;;0.00;0.00;;;;;9.52;64.67;98336.22;2029548;28;2727368;-73
2024/03/28 05:38:51;;;;;;;;;0.50;0.00;;;;;9.56;64.65;98348.19;2037427;28;2731579;-73
2024/03/28 05:40:05;;;;;;;;;1.17;1.00;;;;;9.52;64.76;98342.31;2040146;28;2726330;-73
2024/03/28 05:41:18;;;;;;;;;0.00;0.00;;;;;9.56;64.66;98354.28;2035555;28;2727354;-75
2024/03/28 05:42:31;;;;;;;;;0.00;0.00;;;;;9.53;64.87;98349.22;2035225;28;2731559;-75
2024/03/28 05:43:44;;;;;;;;;0.00;0.00;;;;;9.54;64.64;98350.91;2039829;28;2725286;-75
2024/03/28 05:44:57;;;;;;;;;0.67;0.17;;;;;9.55;65.03;98350.00;2036101;28;2735686;-75
2024/03/28 05:46:10;;;;;;;;;0.00;0.00;;;;;9.57;64.71;98357.75;2036292;28;2729500;-74
2024/03/28 05:47:24;;;;;;;;;0.33;0.33;;;;;9.57;64.77;98355.13;2031605;28;2727350;-75